sensor_id;sensor_type;location;lat;lon;timestamp;pressure;altitude;pressure_sealevel;temperature;humidity
12991;BME280;6560;57.692;11.958;2023-08-08T00:01:04;98475.38;;;33.82;76.39
12991;BME280;6560;57.692;11.958;2023-08-08T00:03:29;98467.97;;;33.84;76.44
12991;BME280;6560;57.692;11.958;2023-08-08T00:05:55;98466.91;;;34.35;74.90
12991;BME280;6560;57.692;11.958;2023-08-08T00:08:22;98429.28;;;33.92;75.26
12991;BME280;6560;57.692;11.958;2023-08-08T00:10:49;98405.00;;;34.01;74.54
12991;BME280;6560;57.692;11.958;2023-08-08T00:13:17;98414.81;;;34.06;74.77
12991;BME280;6560;57.692;11.958;2023-08-08T00:15:46;98443.41;;;34.16;74.53
12991;BME280;6560;57.692;11.958;2023-08-08T00:18:11;98431.94;;;33.93;74.22
12991;BME280;6560;57.692;11.958;2023-08-08T00:20:37;98455.47;;;33.96;75.52
12991;BME280;6560;57.692;11.958;2023-08-08T00:23:02;98463.75;;;34.59;73.92
12991;BME280;6560;57.692;11.958;2023-08-08T00:25:28;98445.66;;;34.72;72.47
12991;BME280;6560;57.692;11.958;2023-08-08T00:27:55;98449.13;;;33.95;73.62
12991;BME280;6560;57.692;11.958;2023-08-08T00:30:24;98439.66;;;33.35;76.02
12991;BME280;6560;57.692;11.958;2023-08-08T00:32:51;98410.72;;;33.48;74.70
12991;BME280;6560;57.692;11.958;2023-08-08T00:35:16;98466.56;;;33.77;74.97
12991;BME280;6560;57.692;11.958;2023-08-08T00:37:42;98439.75;;;33.84;74.79
12991;BME280;6560;57.692;11.958;2023-08-08T00:40:08;98458.81;;;33.85;74.47
12991;BME280;6560;57.692;11.958;2023-08-08T00:42:35;98449.72;;;33.52;74.67
12991;BME280;6560;57.692;11.958;2023-08-08T00:45:02;98428.00;;;33.49;74.74
12991;BME280;6560;57.692;11.958;2023-08-08T00:47:48;98447.34;;;33.94;74.58
12991;BME280;6560;57.692;11.958;2023-08-08T00:50:17;98432.78;;;33.94;73.71
12991;BME280;6560;57.692;11.958;2023-08-08T00:52:45;98450.97;;;33.79;74.39
12991;BME280;6560;57.692;11.958;2023-08-08T00:55:12;98387.31;;;33.60;74.33
12991;BME280;6560;57.692;11.958;2023-08-08T00:57:40;98429.28;;;33.92;74.17
12991;BME280;6560;57.692;11.958;2023-08-08T01:00:09;98424.38;;;33.48;74.19
12991;BME280;6560;57.692;11.958;2023-08-08T01:02:36;98444.47;;;32.96;76.25
12991;BME280;6560;57.692;11.958;2023-08-08T01:05:03;98423.81;;;33.42;75.27
12991;BME280;6560;57.692;11.958;2023-08-08T01:07:41;98443.50;;;33.48;75.52
12991;BME280;6560;57.692;11.958;2023-08-08T01:10:14;98441.75;;;32.42;78.29
12991;BME280;6560;57.692;11.958;2023-08-08T01:12:45;98400.44;;;32.69;76.91
12991;BME280;6560;57.692;11.958;2023-08-08T01:15:14;98422.69;;;32.60;78.28
12991;BME280;6560;57.692;11.958;2023-08-08T01:17:42;98440.75;;;33.33;76.18
12991;BME280;6560;57.692;11.958;2023-08-08T01:20:10;98437.34;;;32.93;75.74
12991;BME280;6560;57.692;11.958;2023-08-08T01:22:43;98402.03;;;32.73;76.90
12991;BME280;6560;57.692;11.958;2023-08-08T01:25:12;98435.97;;;33.69;75.39
12991;BME280;6560;57.692;11.958;2023-08-08T01:27:58;98446.00;;;33.53;75.76
12991;BME280;6560;57.692;11.958;2023-08-08T01:30:26;98424.72;;;33.42;75.61
12991;BME280;6560;57.692;11.958;2023-08-08T01:32:53;98416.72;;;32.88;77.44
12991;BME280;6560;57.692;11.958;2023-08-08T01:35:20;98436.47;;;33.44;76.75
12991;BME280;6560;57.692;11.958;2023-08-08T01:37:57;98436.31;;;33.47;74.86
12991;BME280;6560;57.692;11.958;2023-08-08T01:40:32;98436.06;;;33.00;75.44
12991;BME280;6560;57.692;11.958;2023-08-08T01:42:58;98418.06;;;33.31;75.44
12991;BME280;6560;57.692;11.958;2023-08-08T01:45:26;98303.97;;;32.51;74.06
12991;BME280;6560;57.692;11.958;2023-08-08T01:47:52;98404.03;;;32.87;75.64
12991;BME280;6560;57.692;11.958;2023-08-08T01:50:29;98421.19;;;32.89;77.19
12991;BME280;6560;57.692;11.958;2023-08-08T01:52:54;98415.50;;;32.93;76.98
12991;BME280;6560;57.692;11.958;2023-08-08T01:55:22;98420.84;;;31.68;79.40
12991;BME280;6560;57.692;11.958;2023-08-08T01:57:49;98421.50;;;31.92;79.79
12991;BME280;6560;57.692;11.958;2023-08-08T02:00:15;98432.22;;;32.15;80.58
12991;BME280;6560;57.692;11.958;2023-08-08T02:02:40;98338.03;;;32.78;77.15
12991;BME280;6560;57.692;11.958;2023-08-08T02:05:06;98419.03;;;33.30;76.78
12991;BME280;6560;57.692;11.958;2023-08-08T02:07:31;98406.13;;;32.81;75.95
12991;BME280;6560;57.692;11.958;2023-08-08T02:09:58;98358.31;;;33.07;76.38
12991;BME280;6560;57.692;11.958;2023-08-08T02:12:25;98390.84;;;33.29;74.48
12991;BME280;6560;57.692;11.958;2023-08-08T02:14:54;98387.28;;;32.58;77.46
12991;BME280;6560;57.692;11.958;2023-08-08T02:17:21;98371.25;;;31.97;78.07
12991;BME280;6560;57.692;11.958;2023-08-08T02:19:47;98404.03;;;31.77;78.72
12991;BME280;6560;57.692;11.958;2023-08-08T02:22:13;98409.63;;;31.93;79.93
12991;BME280;6560;57.692;11.958;2023-08-08T02:24:40;98391.22;;;32.17;79.70
12991;BME280;6560;57.692;11.958;2023-08-08T02:27:06;98396.38;;;32.76;78.04
12991;BME280;6560;57.692;11.958;2023-08-08T02:29:32;98403.06;;;33.22;76.78
12991;BME280;6560;57.692;11.958;2023-08-08T02:31:58;98180.34;;;31.82;76.15
12991;BME280;6560;57.692;11.958;2023-08-08T02:34:25;98230.16;;;32.37;75.20
12991;BME280;6560;57.692;11.958;2023-08-08T02:36:51;98366.38;;;32.76;75.39
12991;BME280;6560;57.692;11.958;2023-08-08T02:39:16;98393.03;;;32.71;75.55
12991;BME280;6560;57.692;11.958;2023-08-08T02:41:42;98302.63;;;31.71;78.22
12991;BME280;6560;57.692;11.958;2023-08-08T02:44:09;98341.53;;;31.74;77.59
12991;BME280;6560;57.692;11.958;2023-08-08T02:46:36;98353.81;;;31.25;80.52
12991;BME280;6560;57.692;11.958;2023-08-08T02:49:04;98288.03;;;30.95;79.18
12991;BME280;6560;57.692;11.958;2023-08-08T02:51:34;98393.44;;;32.80;76.61
12991;BME280;6560;57.692;11.958;2023-08-08T02:54:01;98391.59;;;31.72;83.29
12991;BME280;6560;57.692;11.958;2023-08-08T02:56:28;98370.97;;;31.27;82.11
12991;BME280;6560;57.692;11.958;2023-08-08T02:58:55;98378.53;;;31.78;81.82
12991;BME280;6560;57.692;11.958;2023-08-08T03:01:20;98375.03;;;31.95;80.83
12991;BME280;6560;57.692;11.958;2023-08-08T03:03:47;98344.22;;;31.93;78.36
12991;BME280;6560;57.692;11.958;2023-08-08T03:06:17;98364.03;;;32.15;77.63
12991;BME280;6560;57.692;11.958;2023-08-08T03:08:42;98345.91;;;31.95;79.35
12991;BME280;6560;57.692;11.958;2023-08-08T03:11:09;98327.03;;;32.10;78.83
12991;BME280;6560;57.692;11.958;2023-08-08T03:13:37;98370.56;;;32.11;78.88
12991;BME280;6560;57.692;11.958;2023-08-08T03:16:03;98356.44;;;32.56;77.45
12991;BME280;6560;57.692;11.958;2023-08-08T03:18:29;98349.44;;;31.97;77.50
12991;BME280;6560;57.692;11.958;2023-08-08T03:20:56;98301.50;;;31.56;79.00
12991;BME280;6560;57.692;11.958;2023-08-08T03:23:22;98361.78;;;32.23;78.02
12991;BME280;6560;57.692;11.958;2023-08-08T03:26:11;98368.31;;;31.64;79.02
12991;BME280;6560;57.692;11.958;2023-08-08T03:28:40;98352.47;;;31.91;79.35
12991;BME280;6560;57.692;11.958;2023-08-08T03:31:05;98326.50;;;32.20;77.95
12991;BME280;6560;57.692;11.958;2023-08-08T03:33:32;98342.91;;;31.83;77.13
12991;BME280;6560;57.692;11.958;2023-08-08T03:36:00;98333.91;;;31.43;78.42
12991;BME280;6560;57.692;11.958;2023-08-08T03:38:26;98364.88;;;31.22;78.61
12991;BME280;6560;57.692;11.958;2023-08-08T03:40:56;98371.00;;;31.46;77.99
12991;BME280;6560;57.692;11.958;2023-08-08T03:43:21;98339.84;;;32.26;77.38
12991;BME280;6560;57.692;11.958;2023-08-08T03:45:48;98339.34;;;32.18;75.75
12991;BME280;6560;57.692;11.958;2023-08-08T03:48:14;98290.91;;;31.87;76.59
12991;BME280;6560;57.692;11.958;2023-08-08T03:50:39;98330.19;;;32.19;76.74
12991;BME280;6560;57.692;11.958;2023-08-08T03:53:05;98331.94;;;31.65;75.68
12991;BME280;6560;57.692;11.958;2023-08-08T03:55:33;98334.94;;;32.16;76.65
12991;BME280;6560;57.692;11.958;2023-08-08T03:57:58;98325.22;;;31.73;76.80
12991;BME280;6560;57.692;11.958;2023-08-08T04:00:24;98340.34;;;31.61;77.05
12991;BME280;6560;57.692;11.958;2023-08-08T04:03:16;98280.00;;;31.87;75.44
12991;BME280;6560;57.692;11.958;2023-08-08T04:05:45;98344.38;;;31.13;76.28
12991;BME280;6560;57.692;11.958;2023-08-08T04:08:22;98335.50;;;31.10;77.39
12991;BME280;6560;57.692;11.958;2023-08-08T04:10:49;98336.22;;;31.13;78.65
12991;BME280;6560;57.692;11.958;2023-08-08T04:13:14;98282.19;;;31.04;78.32
12991;BME280;6560;57.692;11.958;2023-08-08T04:15:40;98326.06;;;31.75;77.62
12991;BME280;6560;57.692;11.958;2023-08-08T04:18:05;98324.19;;;31.94;77.75
12991;BME280;6560;57.692;11.958;2023-08-08T04:20:34;98219.81;;;31.37;77.10
12991;BME280;6560;57.692;11.958;2023-08-08T04:23:01;98319.69;;;31.37;77.97
12991;BME280;6560;57.692;11.958;2023-08-08T04:25:27;98286.19;;;31.72;77.04
12991;BME280;6560;57.692;11.958;2023-08-08T04:27:53;98308.59;;;31.41;76.96
12991;BME280;6560;57.692;11.958;2023-08-08T04:30:20;98257.34;;;31.68;76.71
12991;BME280;6560;57.692;11.958;2023-08-08T04:32:45;98310.63;;;31.92;76.08
12991;BME280;6560;57.692;11.958;2023-08-08T04:35:13;98278.66;;;31.96;76.65
12991;BME280;6560;57.692;11.958;2023-08-08T04:37:40;98287.72;;;31.59;76.03
12991;BME280;6560;57.692;11.958;2023-08-08T04:40:06;98281.03;;;31.85;76.40
12991;BME280;6560;57.692;11.958;2023-08-08T04:42:34;98258.44;;;32.00;75.05
12991;BME280;6560;57.692;11.958;2023-08-08T04:45:00;98281.66;;;32.43;74.18
12991;BME280;6560;57.692;11.958;2023-08-08T04:47:27;98283.44;;;32.27;73.66
12991;BME280;6560;57.692;11.958;2023-08-08T04:49:55;98282.03;;;32.01;74.69
12991;BME280;6560;57.692;11.958;2023-08-08T04:52:23;98236.78;;;31.97;74.45
12991;BME280;6560;57.692;11.958;2023-08-08T04:54:49;98277.84;;;32.11;74.39
12991;BME280;6560;57.692;11.958;2023-08-08T04:57:15;98283.28;;;31.94;74.39
12991;BME280;6560;57.692;11.958;2023-08-08T04:59:40;98287.44;;;31.09;77.84
12991;BME280;6560;57.692;11.958;2023-08-08T05:02:09;98292.44;;;31.93;75.86
12991;BME280;6560;57.692;11.958;2023-08-08T05:04:36;98278.22;;;31.86;75.74
12991;BME280;6560;57.692;11.958;2023-08-08T05:07:03;98233.47;;;31.73;75.30
12991;BME280;6560;57.692;11.958;2023-08-08T05:09:29;98257.06;;;31.37;75.00
12991;BME280;6560;57.692;11.958;2023-08-08T05:11:55;98261.41;;;31.59;76.32
12991;BME280;6560;57.692;11.958;2023-08-08T05:14:21;98218.66;;;31.24;75.89
12991;BME280;6560;57.692;11.958;2023-08-08T05:16:46;98266.63;;;31.83;75.10
12991;BME280;6560;57.692;11.958;2023-08-08T05:19:13;98231.00;;;31.12;76.91
12991;BME280;6560;57.692;11.958;2023-08-08T05:21:40;98215.13;;;31.58;76.26
12991;BME280;6560;57.692;11.958;2023-08-08T05:24:06;98243.78;;;31.66;76.68
12991;BME280;6560;57.692;11.958;2023-08-08T05:26:31;98247.09;;;31.73;75.80
12991;BME280;6560;57.692;11.958;2023-08-08T05:28:57;98254.63;;;31.68;77.23
12991;BME280;6560;57.692;11.958;2023-08-08T05:31:22;98230.09;;;31.68;76.67
12991;BME280;6560;57.692;11.958;2023-08-08T05:33:49;98213.19;;;31.79;75.17
12991;BME280;6560;57.692;11.958;2023-08-08T05:36:15;98209.69;;;31.94;76.07
12991;BME280;6560;57.692;11.958;2023-08-08T05:38:41;98069.69;;;31.26;75.21
12991;BME280;6560;57.692;11.958;2023-08-08T05:41:09;98189.16;;;31.70;75.52
12991;BME280;6560;57.692;11.958;2023-08-08T05:43:34;98135.84;;;31.64;75.52
12991;BME280;6560;57.692;11.958;2023-08-08T05:46:02;98213.31;;;31.94;74.05
12991;BME280;6560;57.692;11.958;2023-08-08T05:48:27;98226.75;;;32.33;75.07
12991;BME280;6560;57.692;11.958;2023-08-08T05:50:53;98175.88;;;31.26;76.02
12991;BME280;6560;57.692;11.958;2023-08-08T05:53:18;98213.56;;;32.24;75.58
12991;BME280;6560;57.692;11.958;2023-08-08T05:55:44;98191.50;;;31.58;76.86
12991;BME280;6560;57.692;11.958;2023-08-08T05:58:09;98214.97;;;31.97;77.41
12991;BME280;6560;57.692;11.958;2023-08-08T06:00:35;98199.06;;;31.35;77.27
12991;BME280;6560;57.692;11.958;2023-08-08T06:03:01;98204.28;;;31.20;78.65
12991;BME280;6560;57.692;11.958;2023-08-08T06:05:26;98138.00;;;31.21;77.60
12991;BME280;6560;57.692;11.958;2023-08-08T06:07:53;98205.19;;;31.93;77.71
12991;BME280;6560;57.692;11.958;2023-08-08T06:10:20;98213.69;;;31.87;76.32
12991;BME280;6560;57.692;11.958;2023-08-08T06:12:45;98162.31;;;31.62;76.18
12991;BME280;6560;57.692;11.958;2023-08-08T06:15:11;98080.75;;;31.23;74.81
12991;BME280;6560;57.692;11.958;2023-08-08T06:17:37;98186.03;;;31.41;76.92
12991;BME280;6560;57.692;11.958;2023-08-08T06:20:05;98188.34;;;31.67;77.52
12991;BME280;6560;57.692;11.958;2023-08-08T06:22:32;98158.78;;;31.41;76.74
12991;BME280;6560;57.692;11.958;2023-08-08T06:24:59;98167.50;;;31.66;76.25
12991;BME280;6560;57.692;11.958;2023-08-08T06:27:24;98141.47;;;31.61;78.07
12991;BME280;6560;57.692;11.958;2023-08-08T06:29:50;98158.47;;;31.47;76.91
12991;BME280;6560;57.692;11.958;2023-08-08T06:32:15;98129.56;;;31.09;78.87
12991;BME280;6560;57.692;11.958;2023-08-08T06:34:41;98145.00;;;31.44;77.89
12991;BME280;6560;57.692;11.958;2023-08-08T06:37:06;98100.38;;;31.30;78.54
12991;BME280;6560;57.692;11.958;2023-08-08T06:39:32;98135.22;;;31.93;75.98
12991;BME280;6560;57.692;11.958;2023-08-08T06:41:58;98120.56;;;31.61;76.84
12991;BME280;6560;57.692;11.958;2023-08-08T06:44:23;98128.09;;;31.74;76.75
12991;BME280;6560;57.692;11.958;2023-08-08T06:46:49;98034.00;;;30.96;78.12
12991;BME280;6560;57.692;11.958;2023-08-08T06:49:14;98064.41;;;30.68;77.65
12991;BME280;6560;57.692;11.958;2023-08-08T06:51:40;98075.63;;;30.42;81.14
12991;BME280;6560;57.692;11.958;2023-08-08T06:54:05;98093.16;;;29.76;82.86
12991;BME280;6560;57.692;11.958;2023-08-08T06:56:31;98087.69;;;29.97;83.59
12991;BME280;6560;57.692;11.958;2023-08-08T06:58:56;98067.00;;;29.93;83.03
12991;BME280;6560;57.692;11.958;2023-08-08T07:01:23;98087.34;;;31.53;79.96
12991;BME280;6560;57.692;11.958;2023-08-08T07:03:52;98084.00;;;30.19;84.64
12991;BME280;6560;57.692;11.958;2023-08-08T07:06:17;98065.13;;;31.09;80.06
12991;BME280;6560;57.692;11.958;2023-08-08T07:08:46;98005.38;;;30.14;80.42
12991;BME280;6560;57.692;11.958;2023-08-08T07:11:13;98068.16;;;31.20;81.48
12991;BME280;6560;57.692;11.958;2023-08-08T07:13:38;98016.28;;;30.87;82.83
12991;BME280;6560;57.692;11.958;2023-08-08T07:16:04;98074.28;;;30.52;83.41
12991;BME280;6560;57.692;11.958;2023-08-08T07:18:29;98040.84;;;30.11;85.67
12991;BME280;6560;57.692;11.958;2023-08-08T07:20:56;98047.78;;;30.74;82.58
12991;BME280;6560;57.692;11.958;2023-08-08T07:23:42;98004.63;;;30.10;82.84
12991;BME280;6560;57.692;11.958;2023-08-08T07:26:11;98054.06;;;30.58;81.59
12991;BME280;6560;57.692;11.958;2023-08-08T07:28:36;98046.69;;;30.78;82.72
12991;BME280;6560;57.692;11.958;2023-08-08T07:31:02;98038.88;;;30.33;83.60
12991;BME280;6560;57.692;11.958;2023-08-08T07:33:32;98019.28;;;29.27;88.66
12991;BME280;6560;57.692;11.958;2023-08-08T07:35:58;98008.38;;;29.49;86.63
12991;BME280;6560;57.692;11.958;2023-08-08T07:38:23;97991.94;;;29.52;91.58
12991;BME280;6560;57.692;11.958;2023-08-08T07:40:50;97979.94;;;28.75;90.97
12991;BME280;6560;57.692;11.958;2023-08-08T07:43:15;98012.97;;;29.26;91.12
12991;BME280;6560;57.692;11.958;2023-08-08T07:45:41;97923.72;;;28.99;92.73
12991;BME280;6560;57.692;11.958;2023-08-08T07:48:08;97971.13;;;29.10;93.22
12991;BME280;6560;57.692;11.958;2023-08-08T07:50:33;97942.53;;;29.44;89.54
12991;BME280;6560;57.692;11.958;2023-08-08T07:53:00;98032.47;;;30.91;87.03
12991;BME280;6560;57.692;11.958;2023-08-08T07:55:27;97965.19;;;30.02;87.13
12991;BME280;6560;57.692;11.958;2023-08-08T07:57:54;98021.41;;;30.39;86.70
12991;BME280;6560;57.692;11.958;2023-08-08T08:00:22;97990.03;;;31.40;85.19
12991;BME280;6560;57.692;11.958;2023-08-08T08:02:52;97938.19;;;31.41;83.31
12991;BME280;6560;57.692;11.958;2023-08-08T08:05:18;97978.97;;;31.08;84.84
12991;BME280;6560;57.692;11.958;2023-08-08T08:07:47;98012.53;;;30.54;84.30
12991;BME280;6560;57.692;11.958;2023-08-08T08:10:14;98016.22;;;31.77;81.53
12991;BME280;6560;57.692;11.958;2023-08-08T08:12:41;97976.22;;;30.91;82.49
12991;BME280;6560;57.692;11.958;2023-08-08T08:15:10;97976.78;;;30.98;84.35
12991;BME280;6560;57.692;11.958;2023-08-08T08:17:36;98016.72;;;30.97;85.29
12991;BME280;6560;57.692;11.958;2023-08-08T08:20:08;97999.38;;;30.64;85.99
12991;BME280;6560;57.692;11.958;2023-08-08T08:22:40;98049.59;;;30.93;87.22
12991;BME280;6560;57.692;11.958;2023-08-08T08:25:06;98036.91;;;30.74;87.03
12991;BME280;6560;57.692;11.958;2023-08-08T08:27:37;98021.81;;;30.48;85.51
12991;BME280;6560;57.692;11.958;2023-08-08T08:30:08;98041.88;;;30.46;86.02
12991;BME280;6560;57.692;11.958;2023-08-08T08:32:35;98051.84;;;31.20;86.23
12991;BME280;6560;57.692;11.958;2023-08-08T08:35:03;98009.09;;;30.51;83.94
12991;BME280;6560;57.692;11.958;2023-08-08T08:37:35;98037.84;;;30.73;83.21
12991;BME280;6560;57.692;11.958;2023-08-08T08:40:04;98047.94;;;30.53;84.32
12991;BME280;6560;57.692;11.958;2023-08-08T08:42:34;98035.66;;;30.44;84.25
12991;BME280;6560;57.692;11.958;2023-08-08T08:45:02;98019.09;;;29.72;85.49
12991;BME280;6560;57.692;11.958;2023-08-08T08:47:31;97956.47;;;30.69;82.82
12991;BME280;6560;57.692;11.958;2023-08-08T08:49:58;98082.34;;;31.44;83.25
12991;BME280;6560;57.692;11.958;2023-08-08T08:52:25;98058.97;;;30.49;84.90
12991;BME280;6560;57.692;11.958;2023-08-08T08:54:51;98011.63;;;30.35;84.19
12991;BME280;6560;57.692;11.958;2023-08-08T08:57:17;98031.06;;;30.07;83.45
12991;BME280;6560;57.692;11.958;2023-08-08T08:59:44;98073.38;;;30.70;83.60
12991;BME280;6560;57.692;11.958;2023-08-08T09:02:10;98052.09;;;31.85;100.00
12991;BME280;6560;57.692;11.958;2023-08-08T09:04:59;98078.44;;;30.97;100.00
12991;BME280;6560;57.692;11.958;2023-08-08T09:07:31;98021.06;;;30.07;100.00
12991;BME280;6560;57.692;11.958;2023-08-08T09:09:57;98078.53;;;30.58;100.00
12991;BME280;6560;57.692;11.958;2023-08-08T09:12:30;98041.25;;;30.78;100.00
12991;BME280;6560;57.692;11.958;2023-08-08T09:14:58;98091.78;;;30.65;100.00
12991;BME280;6560;57.692;11.958;2023-08-08T09:17:27;98055.63;;;30.80;100.00
12991;BME280;6560;57.692;11.958;2023-08-08T09:20:17;98101.59;;;31.58;100.00
12991;BME280;6560;57.692;11.958;2023-08-08T09:22:44;98046.34;;;29.89;100.00
12991;BME280;6560;57.692;11.958;2023-08-08T09:25:10;98018.91;;;30.53;100.00
12991;BME280;6560;57.692;11.958;2023-08-08T09:27:35;98090.69;;;31.24;100.00
12991;BME280;6560;57.692;11.958;2023-08-08T09:30:06;97989.88;;;30.54;100.00
12991;BME280;6560;57.692;11.958;2023-08-08T09:32:34;98120.03;;;31.36;100.00
12991;BME280;6560;57.692;11.958;2023-08-08T09:35:00;98088.00;;;30.86;100.00
12991;BME280;6560;57.692;11.958;2023-08-08T09:37:28;98108.44;;;31.50;100.00
12991;BME280;6560;57.692;11.958;2023-08-08T09:40:01;98090.00;;;30.64;100.00
12991;BME280;6560;57.692;11.958;2023-08-08T09:42:28;98103.38;;;30.30;100.00
12991;BME280;6560;57.692;11.958;2023-08-08T09:44:56;98125.00;;;32.31;100.00
12991;BME280;6560;57.692;11.958;2023-08-08T09:47:22;98080.22;;;30.21;100.00
12991;BME280;6560;57.692;11.958;2023-08-08T09:49:48;98160.28;;;30.14;100.00
12991;BME280;6560;57.692;11.958;2023-08-08T09:52:15;98135.72;;;31.12;100.00
12991;BME280;6560;57.692;11.958;2023-08-08T09:54:41;98076.28;;;30.47;100.00
12991;BME280;6560;57.692;11.958;2023-08-08T09:57:08;98151.16;;;30.93;100.00
12991;BME280;6560;57.692;11.958;2023-08-08T09:59:34;98156.19;;;31.57;100.00
12991;BME280;6560;57.692;11.958;2023-08-08T10:02:01;98135.31;;;30.06;100.00
12991;BME280;6560;57.692;11.958;2023-08-08T10:04:28;98171.91;;;30.58;100.00
12991;BME280;6560;57.692;11.958;2023-08-08T10:06:54;98159.28;;;29.96;100.00
12991;BME280;6560;57.692;11.958;2023-08-08T10:09:20;98148.22;;;30.40;100.00
12991;BME280;6560;57.692;11.958;2023-08-08T10:11:47;98171.53;;;32.11;98.47
12991;BME280;6560;57.692;11.958;2023-08-08T10:14:13;98128.00;;;32.27;95.68
12991;BME280;6560;57.692;11.958;2023-08-08T10:16:42;98137.81;;;31.43;96.31
12991;BME280;6560;57.692;11.958;2023-08-08T10:19:09;98177.56;;;33.16;88.34
12991;BME280;6560;57.692;11.958;2023-08-08T10:21:41;98187.03;;;33.42;88.08
12991;BME280;6560;57.692;11.958;2023-08-08T10:24:10;98190.69;;;33.88;84.29
12991;BME280;6560;57.692;11.958;2023-08-08T10:26:56;98206.25;;;33.41;83.65
12991;BME280;6560;57.692;11.958;2023-08-08T10:29:26;98186.75;;;33.78;82.80
12991;BME280;6560;57.692;11.958;2023-08-08T10:32:04;98217.78;;;32.81;100.00
12991;BME280;6560;57.692;11.958;2023-08-08T10:34:55;98211.72;;;32.42;100.00
12991;BME280;6560;57.692;11.958;2023-08-08T10:37:22;98215.97;;;32.48;100.00
12991;BME280;6560;57.692;11.958;2023-08-08T10:39:57;98224.34;;;31.91;100.00
12991;BME280;6560;57.692;11.958;2023-08-08T10:42:25;98234.25;;;32.96;99.80
12991;BME280;6560;57.692;11.958;2023-08-08T10:44:54;98230.94;;;31.87;100.00
12991;BME280;6560;57.692;11.958;2023-08-08T10:47:31;98231.72;;;32.25;99.96
12991;BME280;6560;57.692;11.958;2023-08-08T10:52:49;98250.00;;;32.40;100.00
12991;BME280;6560;57.692;11.958;2023-08-08T10:58:06;98251.91;;;31.12;100.00
12991;BME280;6560;57.692;11.958;2023-08-08T11:00:35;98219.72;;;31.01;100.00
12991;BME280;6560;57.692;11.958;2023-08-08T11:03:07;98228.66;;;31.61;100.00
12991;BME280;6560;57.692;11.958;2023-08-08T11:05:54;98260.75;;;30.78;100.00
12991;BME280;6560;57.692;11.958;2023-08-08T11:08:19;98221.00;;;32.03;99.74
12991;BME280;6560;57.692;11.958;2023-08-08T11:10:54;98277.91;;;32.45;96.78
12991;BME280;6560;57.692;11.958;2023-08-08T11:13:19;98274.09;;;32.67;94.42
12991;BME280;6560;57.692;11.958;2023-08-08T11:15:45;98264.44;;;32.25;95.81
12991;BME280;6560;57.692;11.958;2023-08-08T11:18:11;98271.44;;;32.12;94.93
12991;BME280;6560;57.692;11.958;2023-08-08T11:20:38;98285.44;;;32.92;92.93
12991;BME280;6560;57.692;11.958;2023-08-08T11:23:06;98280.34;;;33.35;89.68
12991;BME280;6560;57.692;11.958;2023-08-08T11:25:39;98269.25;;;32.55;89.38
12991;BME280;6560;57.692;11.958;2023-08-08T11:28:05;98248.31;;;31.85;90.28
12991;BME280;6560;57.692;11.958;2023-08-08T11:30:37;98252.97;;;32.19;91.12
12991;BME280;6560;57.692;11.958;2023-08-08T11:33:06;98275.59;;;32.21;90.32
12991;BME280;6560;57.692;11.958;2023-08-08T11:35:33;98297.72;;;33.01;91.45
12991;BME280;6560;57.692;11.958;2023-08-08T11:38:21;98259.38;;;31.44;92.76
12991;BME280;6560;57.692;11.958;2023-08-08T11:40:48;98298.19;;;32.57;92.94
12991;BME280;6560;57.692;11.958;2023-08-08T11:43:16;98262.50;;;31.74;100.00
12991;BME280;6560;57.692;11.958;2023-08-08T11:45:42;98270.31;;;31.99;95.90
12991;BME280;6560;57.692;11.958;2023-08-08T11:48:09;98257.19;;;34.34;85.31
12991;BME280;6560;57.692;11.958;2023-08-08T11:50:37;98317.56;;;32.87;86.93
12991;BME280;6560;57.692;11.958;2023-08-08T11:53:04;98245.53;;;31.86;82.42
12991;BME280;6560;57.692;11.958;2023-08-08T11:55:31;98335.03;;;32.31;91.16
12991;BME280;6560;57.692;11.958;2023-08-08T11:57:57;98341.53;;;32.46;89.81
12991;BME280;6560;57.692;11.958;2023-08-08T12:00:30;98326.75;;;31.97;95.48
12991;BME280;6560;57.692;11.958;2023-08-08T12:02:59;98351.31;;;32.50;90.07
12991;BME280;6560;57.692;11.958;2023-08-08T12:05:26;98344.97;;;32.50;89.78
12991;BME280;6560;57.692;11.958;2023-08-08T12:07:53;98326.63;;;31.44;99.88
12991;BME280;6560;57.692;11.958;2023-08-08T12:10:23;98347.88;;;32.64;92.11
12991;BME280;6560;57.692;11.958;2023-08-08T12:12:54;98353.53;;;33.61;86.75
12991;BME280;6560;57.692;11.958;2023-08-08T12:15:20;98360.91;;;33.76;86.48
12991;BME280;6560;57.692;11.958;2023-08-08T12:17:46;98293.03;;;33.36;81.11
12991;BME280;6560;57.692;11.958;2023-08-08T12:20:17;98371.84;;;33.92;83.79
12991;BME280;6560;57.692;11.958;2023-08-08T12:22:44;98371.78;;;32.59;91.80
12991;BME280;6560;57.692;11.958;2023-08-08T12:25:10;98376.78;;;31.19;100.00
12991;BME280;6560;57.692;11.958;2023-08-08T12:27:37;98397.25;;;30.45;100.00
12991;BME280;6560;57.692;11.958;2023-08-08T12:30:06;98356.47;;;30.45;100.00
12991;BME280;6560;57.692;11.958;2023-08-08T12:32:32;98421.91;;;29.97;100.00
12991;BME280;6560;57.692;11.958;2023-08-08T12:34:59;98382.63;;;29.83;100.00
12991;BME280;6560;57.692;11.958;2023-08-08T12:37:26;98420.25;;;33.24;86.99
12991;BME280;6560;57.692;11.958;2023-08-08T12:39:52;98392.72;;;32.94;89.46
12991;BME280;6560;57.692;11.958;2023-08-08T12:42:19;98338.25;;;29.82;92.04
12991;BME280;6560;57.692;11.958;2023-08-08T12:44:45;98423.13;;;31.96;93.51
12991;BME280;6560;57.692;11.958;2023-08-08T12:47:12;98432.84;;;32.01;96.57
12991;BME280;6560;57.692;11.958;2023-08-08T12:49:37;98412.34;;;30.74;100.00
12991;BME280;6560;57.692;11.958;2023-08-08T12:52:03;98397.16;;;27.77;100.00
12991;BME280;6560;57.692;11.958;2023-08-08T12:54:29;98474.84;;;28.62;100.00
12991;BME280;6560;57.692;11.958;2023-08-08T12:56:56;98402.84;;;31.64;95.67
12991;BME280;6560;57.692;11.958;2023-08-08T12:59:23;98414.16;;;29.15;100.00
12991;BME280;6560;57.692;11.958;2023-08-08T13:01:48;98423.41;;;28.59;100.00
12991;BME280;6560;57.692;11.958;2023-08-08T13:04:15;98468.97;;;32.80;95.25
12991;BME280;6560;57.692;11.958;2023-08-08T13:06:41;98488.09;;;28.43;100.00